ZCL weather

General Leobardo C. Ruiz International Airport
Zacatecas, Zacatecas, Mexico

Public forecast

Using degrees Celsius for public forecast. Weather courtesy of forecast.io.

METAR (pilot weather report)

Retrieved 2019/04/24 16:51 UTC (1 hour ago):

MMZC 241651Z 25017KT 10SM FEW120 OVC200 21/M11 A3018 RMK 8/037

TAF (pilot weather forecast)

Retrieved 2019/04/24 12:08 UTC (6 hours ago):

TAF MMZC 241002Z 2412/2518 20014KT P6SM BKN250 TX27/2422Z TN11/2412Z FM241800 23022KT P6SM BKN100 OVC250 FM250600 20010KT P6SM BKN250 FM251700 36018KT P6SM SCT030 BKN100 BKN250